Time;durP1;ratioP1;P1;durP2;ratioP2;P2;SDS_P1;SDS_P2;PMS_P1;PMS_P2;Temp;Humidity;BMP_temperature;BMP_pressure;BME280_temperature;BME280_humidity;BME280_pressure;Samples;Min_cycle;Max_cycle;Signal;HPM_P1;HPM_P2
2022/03/08 00:00:41;;;;;;;4.82;2.42;;;1.00;99.90;;;;;;5049535;28;20119;-96
2022/03/08 00:03:07;;;;;;;3.58;2.22;;;1.10;99.90;;;;;;5017865;28;20079;-96
2022/03/08 00:05:35;;;;;;;6.47;2.80;;;0.90;99.90;;;;;;5034581;28;20036;-95
2022/03/08 00:08:00;;;;;;;5.32;3.00;;;0.90;99.90;;;;;;5019151;28;20078;-96
2022/03/08 00:10:26;;;;;;;3.40;2.38;;;2.30;99.90;;;;;;5035096;28;20036;-96
2022/03/08 00:12:53;;;;;;;4.78;2.50;;;1.80;99.90;;;;;;5049389;28;20040;-95
2022/03/08 00:15:23;;;;;;;4.45;3.05;;;1.60;99.90;;;;;;5036888;28;20094;-96
2022/03/08 00:17:51;;;;;;;6.70;3.03;;;0.70;99.90;;;;;;5054247;28;20119;-96
2022/03/08 00:20:19;;;;;;;8.57;2.90;;;0.80;99.90;;;;;;5057399;28;20071;-95
2022/03/08 00:22:48;;;;;;;3.97;2.90;;;0.60;99.90;;;;;;5025072;28;20063;-96
2022/03/08 00:25:16;;;;;;;4.82;2.47;;;0.70;99.90;;;;;;5025429;28;20099;-96
2022/03/08 00:27:47;;;;;;;3.53;2.45;;;0.60;99.90;;;;;;5041911;28;20029;-96
2022/03/08 00:30:15;;;;;;;3.97;2.60;;;1.80;99.90;;;;;;5027579;28;20062;-96
2022/03/08 00:32:41;;;;;;;4.20;2.75;;;1.60;99.90;;;;;;5046923;28;20048;-96
2022/03/08 00:35:08;;;;;;;6.80;3.60;;;1.70;99.90;;;;;;5067939;28;20150;-95
2022/03/08 00:37:35;;;;;;;4.68;2.65;;;0.40;99.90;;;;;;5067821;28;20070;-95
2022/03/08 00:43:49;;;;;;;4.13;2.50;;;0.00;99.90;;;;;;5088452;28;20120;-94
2022/03/08 00:46:17;;;;;;;3.33;2.63;;;1.00;99.90;;;;;;5064284;28;20037;-96
2022/03/08 00:48:45;;;;;;;6.43;2.53;;;0.20;99.90;;;;;;5064179;28;20112;-96
2022/03/08 00:51:12;;;;;;;4.25;2.75;;;0.10;99.90;;;;;;5066031;28;20036;-96
2022/03/08 00:53:50;;;;;;;4.50;2.72;;;-0.10;99.90;;;;;;5068228;28;20053;-96
2022/03/08 00:56:19;;;;;;;4.30;2.67;;;0.00;99.90;;;;;;5084203;28;20060;-96
2022/03/08 00:58:55;;;;;;;3.97;2.53;;;1.30;99.90;;;;;;5088178;28;20067;-96
2022/03/08 01:01:21;;;;;;;4.95;2.70;;;-0.10;99.90;;;;;;5051496;28;20052;-96
2022/03/08 01:04:07;;;;;;;5.90;2.70;;;0.50;99.90;;;;;;5049506;28;20040;-95
2022/03/08 01:06:43;;;;;;;5.68;3.55;;;1.00;99.90;;;;;;5081244;28;20083;-96
2022/03/08 01:09:10;;;;;;;5.43;3.03;;;1.00;99.90;;;;;;5064221;28;20049;-96
2022/03/08 01:11:39;;;;;;;4.82;2.63;;;0.40;99.90;;;;;;5063215;28;20173;-96
2022/03/08 01:14:08;;;;;;;9.55;3.22;;;1.00;99.90;;;;;;5081401;28;20052;-96
2022/03/08 01:16:47;;;;;;;5.65;2.95;;;-0.30;99.90;;;;;;5064005;28;20094;-96
2022/03/08 01:19:13;;;;;;;4.40;3.20;;;-0.40;99.90;;;;;;5063492;28;20041;-96
2022/03/08 01:21:39;;;;;;;5.28;3.05;;;0.60;99.90;;;;;;5066531;28;20044;-96
2022/03/08 01:24:06;;;;;;;5.75;3.35;;;0.50;99.90;;;;;;5066734;28;20055;-96
2022/03/08 01:26:41;;;;;;;8.00;3.10;;;-0.40;99.90;;;;;;5068394;28;20048;-96
2022/03/08 01:29:42;;;;;;;;;;;0.70;99.90;;;;;;5086116;28;20059;-96
2022/03/08 01:32:09;;;;;;;5.28;3.10;;;-0.50;99.90;;;;;;5068801;28;20500;-96
2022/03/08 01:34:34;;;;;;;4.70;2.75;;;-0.90;99.90;;;;;;5049608;28;20039;-96
2022/03/08 01:59:32;;;;;;;;;;;-0.70;99.90;;;;;;5139211;28;20027;-96
2022/03/08 02:01:58;;;;;;;7.88;3.72;;;-0.60;99.90;;;;;;5079536;28;20322;-96
2022/03/08 02:04:25;;;;;;;6.80;3.90;;;-0.70;99.90;;;;;;5077167;28;20040;-94
2022/03/08 02:06:50;;;;;;;6.38;3.88;;;0.60;99.90;;;;;;5090126;28;20043;-95
2022/03/08 02:09:17;;;;;;;6.32;4.43;;;0.00;99.90;;;;;;5068988;28;20040;-96
2022/03/08 02:11:44;;;;;;;7.70;4.30;;;0.60;99.90;;;;;;5083588;28;20409;-96
2022/03/08 02:14:10;;;;;;;8.98;4.10;;;-0.70;99.90;;;;;;5080048;28;20471;-96
2022/03/08 02:16:38;;;;;;;8.60;4.30;;;0.40;99.90;;;;;;5079333;28;20101;-96
2022/03/08 02:19:04;;;;;;;7.75;4.53;;;0.20;99.90;;;;;;5074415;28;20038;-94
2022/03/08 02:21:36;;;;;;;9.43;4.68;;;0.20;99.90;;;;;;5077660;28;20067;-96
2022/03/08 02:24:02;;;;;;;7.17;4.70;;;-0.80;99.90;;;;;;5082907;28;20069;-95
2022/03/08 02:26:31;;;;;;;7.85;4.72;;;-0.70;99.90;;;;;;5064156;28;20051;-96
2022/03/08 02:29:00;;;;;;;8.73;4.60;;;-1.30;99.90;;;;;;5098081;28;20097;-95
2022/03/08 02:31:33;;;;;;;9.32;4.60;;;-0.60;99.90;;;;;;5083274;28;20105;-95
2022/03/08 02:34:03;;;;;;;7.95;4.70;;;-0.90;99.90;;;;;;5082194;28;20499;-96
2022/03/08 02:36:54;;;;;;;9.93;5.20;;;0.50;99.90;;;;;;5071530;28;20077;-96
2022/03/08 02:43:22;;;;;;;6.78;4.70;;;-0.80;99.90;;;;;;5134598;27;20082;-96
2022/03/08 02:57:24;;;;;;;10.15;4.55;;;-1.00;99.90;;;;;;5058657;28;20063;-96
2022/03/08 03:00:41;;;;;;;8.38;4.63;;;-0.30;99.90;;;;;;5058373;28;20055;-95
2022/03/08 03:22:39;;;;;;;9.30;5.45;;;-1.20;99.90;;;;;;5033991;28;20037;-96
2022/03/08 03:25:46;;;;;;;6.47;4.93;;;0.10;99.90;;;;;;4960569;28;20129;-96
2022/03/08 03:28:48;;;;;;;6.82;4.93;;;-2.40;99.90;;;;;;4963503;28;20061;-96
2022/03/08 03:38:53;;;;;;;;;;;-1.60;99.90;;;;;;4879187;29;20037;-96
2022/03/08 04:17:44;;;;;;;8.23;5.40;;;-1.50;99.90;;;;;;5011179;28;20146;-96
2022/03/08 04:20:49;;;;;;;10.82;6.85;;;-2.80;99.90;;;;;;4958978;29;20051;-96
2022/03/08 04:27:08;;;;;;;10.13;6.43;;;-1.70;99.90;;;;;;4909171;29;20061;-96
2022/03/08 04:29:52;;;;;;;8.77;5.97;;;-2.90;99.90;;;;;;4896263;29;20048;-96
2022/03/08 04:32:18;;;;;;;10.48;5.93;;;-2.70;99.90;;;;;;4895962;29;20072;-96
2022/03/08 04:34:44;;;;;;;11.50;7.90;;;-0.10;99.90;;;;;;4879143;29;20084;-95
2022/03/08 04:41:36;;;;;;;12.95;7.47;;;-1.90;99.90;;;;;;5021292;28;20037;-92
2022/03/08 04:44:39;;;;;;;11.45;6.57;;;-1.70;99.90;;;;;;4970123;28;20046;-96
2022/03/08 04:47:30;;;;;;;10.77;6.53;;;-0.80;99.90;;;;;;4982847;28;20045;-96
2022/03/08 04:49:58;;;;;;;14.77;7.88;;;-1.80;99.90;;;;;;4965799;28;20089;-95
2022/03/08 04:52:24;;;;;;;11.38;7.53;;;-1.90;99.90;;;;;;4982080;28;20056;-96
2022/03/08 04:54:50;;;;;;;10.27;6.72;;;-0.50;99.90;;;;;;5045061;28;20043;-96
2022/03/08 04:57:16;;;;;;;13.43;8.38;;;-2.10;99.90;;;;;;5076253;28;20043;-96
2022/03/08 04:59:42;;;;;;;14.43;8.02;;;-0.70;99.90;;;;;;5077571;28;20069;-95
2022/03/08 05:05:50;;;;;;;13.40;7.45;;;-1.60;99.90;;;;;;5138366;28;20349;-96
2022/03/08 05:08:18;;;;;;;15.27;7.88;;;-1.40;99.90;;;;;;5092449;28;20040;-96
2022/03/08 05:10:49;;;;;;;13.32;7.47;;;-0.90;99.90;;;;;;5093470;28;20059;-96
2022/03/08 05:13:19;;;;;;;13.07;7.63;;;-1.80;99.90;;;;;;5093132;28;20123;-96
2022/03/08 05:16:26;;;;;;;10.73;6.68;;;-0.30;99.90;;;;;;5071267;28;20089;-96
2022/03/08 05:19:06;;;;;;;13.30;8.05;;;-1.90;99.90;;;;;;5061837;28;20124;-94
2022/03/08 05:21:32;;;;;;;11.77;7.35;;;-1.90;99.90;;;;;;5049111;28;20052;-95
2022/03/08 05:23:58;;;;;;;14.60;7.75;;;-1.90;99.90;;;;;;5000712;28;20055;-94
2022/03/08 05:26:23;;;;;;;11.85;7.93;;;-2.00;99.90;;;;;;5017255;28;20076;-96
2022/03/08 05:28:49;;;;;;;14.38;7.65;;;-1.90;99.90;;;;;;5033967;28;20638;-95
2022/03/08 05:31:14;;;;;;;12.00;7.65;;;-2.00;99.90;;;;;;5033376;28;20052;-91
2022/03/08 05:33:40;;;;;;;12.18;8.35;;;-1.90;99.90;;;;;;5003455;28;20463;-92
2022/03/08 05:36:06;;;;;;;11.82;8.02;;;-1.90;99.90;;;;;;5016683;28;20055;-92
2022/03/08 05:38:32;;;;;;;13.95;8.85;;;-1.90;99.90;;;;;;5049318;28;20085;-92
2022/03/08 05:40:59;;;;;;;14.45;8.75;;;-1.80;99.90;;;;;;5016550;28;20049;-91
2022/03/08 05:43:26;;;;;;;14.52;8.10;;;-2.00;99.90;;;;;;5016673;28;20048;-94
2022/03/08 05:45:51;;;;;;;16.23;9.20;;;-1.80;99.90;;;;;;5051426;28;20145;-95
2022/03/08 05:48:17;;;;;;;16.08;8.15;;;-0.50;99.90;;;;;;5032966;28;20082;-94
2022/03/08 05:50:43;;;;;;;12.48;8.80;;;-1.80;99.90;;;;;;4999719;28;20051;-92
2022/03/08 05:53:09;;;;;;;14.77;7.93;;;-1.80;99.90;;;;;;5062961;28;20055;-95
2022/03/08 05:55:34;;;;;;;12.98;8.57;;;-1.80;99.90;;;;;;5058032;28;20043;-95
2022/03/08 05:58:00;;;;;;;18.65;9.25;;;-1.80;99.90;;;;;;5038308;28;20139;-95
2022/03/08 06:00:26;;;;;;;12.60;8.25;;;-1.80;99.90;;;;;;5057021;28;20040;-88
2022/03/08 06:02:52;;;;;;;19.63;10.43;;;-1.80;99.90;;;;;;5056750;28;20051;-90
2022/03/08 06:05:18;;;;;;;15.15;9.07;;;-1.70;99.90;;;;;;5071953;28;20047;-92
2022/03/08 06:07:44;;;;;;;16.92;8.82;;;-1.70;99.90;;;;;;5072220;28;20123;-82
2022/03/08 06:10:10;;;;;;;16.30;9.77;;;-1.70;99.90;;;;;;5088675;28;20045;-81
2022/03/08 06:12:37;;;;;;;21.38;9.75;;;-1.70;99.90;;;;;;5107266;28;20074;-81
2022/03/08 06:15:04;;;;;;;17.40;9.82;;;-1.70;99.90;;;;;;5105696;28;20057;-79
2022/03/08 06:17:30;;;;;;;16.85;9.52;;;-1.70;99.90;;;;;;5107881;28;20043;-81
2022/03/08 06:19:56;;;;;;;14.10;9.07;;;-1.50;99.90;;;;;;5107787;28;20098;-81
2022/03/08 06:22:21;;;;;;;14.48;8.80;;;-1.60;99.90;;;;;;5107495;28;20364;-80
2022/03/08 06:24:47;;;;;;;21.38;10.95;;;-1.60;99.90;;;;;;5107124;28;20102;-80
2022/03/08 06:27:13;;;;;;;18.70;9.60;;;-1.60;99.90;;;;;;5107246;28;20070;-81
2022/03/08 06:29:39;;;;;;;14.25;9.20;;;-1.60;99.90;;;;;;5106923;28;20451;-80
2022/03/08 06:32:06;;;;;;;12.90;8.82;;;-1.60;99.90;;;;;;5107098;28;20089;-81
2022/03/08 06:34:32;;;;;;;14.60;9.65;;;-1.60;99.90;;;;;;5105426;28;20074;-81
2022/03/08 06:36:58;;;;;;;18.30;10.43;;;-1.60;99.90;;;;;;5105367;28;20051;-81
2022/03/08 06:39:24;;;;;;;14.30;9.20;;;-1.60;99.90;;;;;;5107077;28;20043;-80
2022/03/08 06:41:50;;;;;;;19.25;9.98;;;-1.50;99.90;;;;;;5104816;28;20468;-80
2022/03/08 06:44:15;;;;;;;15.13;9.68;;;-1.50;99.90;;;;;;5105162;28;20112;-80
2022/03/08 06:46:44;;;;;;;16.77;9.25;;;-1.50;99.90;;;;;;5106329;28;20047;-80
2022/03/08 06:49:13;;;;;;;15.82;8.95;;;-1.50;99.90;;;;;;5105178;28;20491;-79
2022/03/08 06:51:39;;;;;;;15.68;9.43;;;-1.40;99.90;;;;;;5105745;28;20396;-81
2022/03/08 06:54:06;;;;;;;15.70;9.23;;;-1.40;99.90;;;;;;5106528;28;20074;-81
2022/03/08 06:56:33;;;;;;;15.73;9.10;;;-1.30;99.90;;;;;;5105775;28;20490;-81
2022/03/08 06:59:00;;;;;;;17.30;9.80;;;-1.30;99.90;;;;;;5088072;28;20248;-81
2022/03/08 07:01:26;;;;;;;17.80;8.38;;;-1.20;99.90;;;;;;5087908;28;20047;-81
2022/03/08 07:03:51;;;;;;;16.38;10.50;;;-1.20;99.90;;;;;;5072162;28;20047;-81
2022/03/08 07:06:17;;;;;;;17.75;9.70;;;-1.10;99.90;;;;;;5071481;28;20047;-81
2022/03/08 07:08:43;;;;;;;15.20;9.05;;;-1.00;99.90;;;;;;5089397;28;20039;-80
2022/03/08 07:11:09;;;;;;;18.38;10.25;;;-0.90;99.90;;;;;;5054067;28;20079;-79
2022/03/08 07:13:35;;;;;;;18.95;10.43;;;-0.80;99.90;;;;;;5106075;28;20089;-80
2022/03/08 07:16:01;;;;;;;18.90;10.82;;;-0.70;99.90;;;;;;5087666;28;20054;-80
2022/03/08 07:18:27;;;;;;;16.00;9.88;;;-0.60;99.90;;;;;;5070629;28;20043;-81
2022/03/08 07:20:53;;;;;;;15.07;9.35;;;-0.50;99.90;;;;;;5087973;28;20083;-80
2022/03/08 07:23:18;;;;;;;17.00;9.07;;;-0.40;99.90;;;;;;5087796;28;20121;-81
2022/03/08 07:25:44;;;;;;;22.25;9.88;;;-0.20;99.90;;;;;;5087169;28;20469;-81
2022/03/08 07:28:10;;;;;;;14.90;8.90;;;-0.10;99.90;;;;;;5087502;28;20047;-80
2022/03/08 07:30:36;;;;;;;18.75;8.35;;;0.00;99.90;;;;;;5053906;28;20051;-80
2022/03/08 07:33:02;;;;;;;16.52;8.75;;;0.20;99.90;;;;;;5070665;28;20449;-80
2022/03/08 07:35:28;;;;;;;13.63;7.97;;;0.30;99.90;;;;;;5086929;28;20045;-80
2022/03/08 07:37:54;;;;;;;12.57;8.77;;;0.50;99.90;;;;;;5070316;28;20051;-80
2022/03/08 07:40:19;;;;;;;13.30;7.95;;;0.60;99.90;;;;;;5087034;28;20344;-80
2022/03/08 07:42:45;;;;;;;16.85;8.80;;;0.70;99.90;;;;;;5069879;28;20448;-81
2022/03/08 07:45:11;;;;;;;14.18;8.18;;;0.90;99.90;;;;;;5087080;28;20047;-80
2022/03/08 07:47:37;;;;;;;14.32;7.97;;;1.00;99.90;;;;;;5069895;28;20047;-80
2022/03/08 07:50:05;;;;;;;15.55;8.57;;;1.20;99.90;;;;;;5053503;28;20111;-80
2022/03/08 07:52:31;;;;;;;15.65;8.25;;;1.40;99.90;;;;;;5087231;28;20049;-80
2022/03/08 07:54:56;;;;;;;19.30;8.68;;;1.50;99.90;;;;;;5069556;28;20426;-81
2022/03/08 07:57:22;;;;;;;13.15;8.05;;;1.70;99.90;;;;;;5069905;28;20077;-80
2022/03/08 07:59:48;;;;;;;13.20;7.60;;;1.90;99.90;;;;;;5087062;28;20043;-80
2022/03/08 08:02:14;;;;;;;20.35;7.88;;;2.00;99.90;;;;;;5087169;28;20447;-79
2022/03/08 08:04:39;;;;;;;14.65;7.78;;;2.10;99.90;;;;;;5053435;28;20044;-79
2022/03/08 08:07:05;;;;;;;13.93;7.47;;;2.30;99.90;;;;;;5053169;28;20042;-80
2022/03/08 08:09:31;;;;;;;19.58;7.60;;;2.40;99.90;;;;;;5086621;28;20043;-80
2022/03/08 08:11:57;;;;;;;14.30;7.47;;;2.50;99.90;;;;;;5070235;28;20053;-80
2022/03/08 08:14:23;;;;;;;14.20;7.53;;;2.70;99.90;;;;;;5070305;28;20052;-80
2022/03/08 08:16:48;;;;;;;12.50;7.57;;;2.90;99.90;;;;;;5086269;28;20047;-80
2022/03/08 08:19:14;;;;;;;13.65;7.85;;;3.20;99.90;;;;;;5036727;28;20079;-80
2022/03/08 08:21:40;;;;;;;11.43;6.95;;;3.60;99.90;;;;;;5086473;28;20036;-80
2022/03/08 08:24:06;;;;;;;11.55;7.50;;;3.90;99.90;;;;;;5087623;28;20080;-79
2022/03/08 08:26:32;;;;;;;10.25;6.43;;;4.20;99.90;;;;;;5037382;28;20399;-78
2022/03/08 08:28:58;;;;;;;12.15;6.20;;;4.40;99.90;;;;;;5071189;28;20048;-79
2022/03/08 08:31:24;;;;;;;10.05;6.38;;;4.70;99.90;;;;;;5087464;28;20040;-80
2022/03/08 08:33:53;;;;;;;8.45;5.80;;;4.90;99.90;;;;;;5086852;28;20050;-80
2022/03/08 08:36:19;;;;;;;12.23;6.93;;;6.00;99.90;;;;;;5086802;28;20052;-80
2022/03/08 08:38:45;;;;;;;12.60;6.65;;;5.10;99.90;;;;;;5086532;28;20094;-79
2022/03/08 08:41:11;;;;;;;9.48;5.95;;;5.10;99.90;;;;;;5087088;28;20039;-79
2022/03/08 08:43:36;;;;;;;10.55;6.25;;;5.10;99.90;;;;;;5086345;28;20391;-79
2022/03/08 08:46:02;;;;;;;14.32;6.60;;;5.10;99.90;;;;;;5070120;28;20048;-79
2022/03/08 08:48:29;;;;;;;10.50;6.22;;;5.20;99.90;;;;;;5104958;28;20433;-79
2022/03/08 08:50:55;;;;;;;10.98;6.10;;;5.30;99.90;;;;;;5086852;28;20485;-79
2022/03/08 08:53:22;;;;;;;10.70;6.45;;;5.50;99.90;;;;;;5086647;28;20126;-79
2022/03/08 08:55:48;;;;;;;10.45;6.28;;;5.60;99.90;;;;;;5053092;28;20085;-78
2022/03/08 08:58:14;;;;;;;14.77;6.00;;;5.70;99.90;;;;;;5086647;28;20593;-79
2022/03/08 09:00:40;;;;;;;8.85;5.20;;;5.80;99.90;;;;;;5069420;28;20487;-79
2022/03/08 09:03:10;;;;;;;9.40;5.55;;;5.90;99.90;;;;;;5086480;28;20032;-79
2022/03/08 09:05:36;;;;;;;10.82;5.82;;;6.00;99.90;;;;;;5069811;28;20048;-79
2022/03/08 09:08:03;;;;;;;9.25;5.15;;;6.10;99.90;;;;;;5086251;28;20487;-79
2022/03/08 09:10:29;;;;;;;9.60;6.15;;;6.10;99.90;;;;;;5086412;28;20085;-80
2022/03/08 09:12:55;;;;;;;9.18;5.65;;;6.20;99.90;;;;;;5086509;28;20079;-79
2022/03/08 09:15:21;;;;;;;10.85;5.30;;;6.30;99.90;;;;;;5070063;28;20503;-79
2022/03/08 09:17:48;;;;;;;6.70;4.50;;;6.40;99.90;;;;;;5053254;28;20039;-79
2022/03/08 09:20:14;;;;;;;7.68;4.95;;;6.40;99.90;;;;;;5073139;28;20032;-79
2022/03/08 09:22:40;;;;;;;7.93;4.85;;;6.50;99.90;;;;;;5089513;28;20047;-80
2022/03/08 09:25:07;;;;;;;8.75;5.60;;;6.50;99.90;;;;;;5072718;28;20122;-79
2022/03/08 09:27:34;;;;;;;7.32;4.70;;;6.70;99.90;;;;;;5072751;28;20054;-78
2022/03/08 09:30:00;;;;;;;7.28;4.65;;;6.70;99.90;;;;;;5073253;28;20401;-80
2022/03/08 09:32:26;;;;;;;11.30;5.50;;;7.30;99.90;;;;;;5089799;28;20513;-79
2022/03/08 09:34:51;;;;;;;12.65;5.40;;;7.00;99.80;;;;;;5089382;28;20040;-79
2022/03/08 09:37:17;;;;;;;7.90;5.53;;;7.00;99.90;;;;;;5089690;28;20054;-80
2022/03/08 09:39:43;;;;;;;6.45;5.20;;;7.20;97.70;;;;;;5089255;28;20040;-80
2022/03/08 09:42:10;;;;;;;8.45;4.45;;;7.30;97.20;;;;;;5072802;28;20138;-79
2022/03/08 09:44:36;;;;;;;7.18;4.82;;;7.50;95.00;;;;;;5090363;28;20475;-79
2022/03/08 09:47:02;;;;;;;6.32;4.18;;;8.30;94.80;;;;;;5056467;28;20129;-78
2022/03/08 09:49:28;;;;;;;8.68;4.53;;;7.70;93.40;;;;;;5089789;28;20046;-80
2022/03/08 09:51:54;;;;;;;6.65;4.05;;;7.90;91.50;;;;;;5090274;28;20039;-78
2022/03/08 09:54:20;;;;;;;6.53;4.28;;;8.00;84.30;;;;;;5089527;28;20042;-78
2022/03/08 09:56:46;;;;;;;9.95;4.88;;;8.20;90.80;;;;;;5072733;28;20060;-79
2022/03/08 09:59:19;;;;;;;11.32;4.68;;;8.20;86.30;;;;;;5088966;28;20083;-79
2022/03/08 10:01:47;;;;;;;7.35;4.07;;;8.10;80.50;;;;;;5073092;28;20040;-80
2022/03/08 10:04:18;;;;;;;8.35;4.55;;;8.20;84.70;;;;;;5072543;28;20042;-79
2022/03/08 10:06:47;;;;;;;8.18;5.10;;;8.20;74.80;;;;;;5089172;28;20047;-78
2022/03/08 10:09:18;;;;;;;10.88;5.22;;;8.10;82.00;;;;;;5072156;28;20483;-78
2022/03/08 10:11:44;;;;;;;12.38;5.25;;;8.20;80.40;;;;;;5088886;28;20505;-78
2022/03/08 10:14:29;;;;;;;5.75;4.35;;;8.50;86.20;;;;;;5088837;28;20043;-79
2022/03/08 10:16:55;;;;;;;8.82;4.78;;;8.50;83.80;;;;;;5088779;28;20491;-79
2022/03/08 10:19:20;;;;;;;10.05;4.47;;;9.10;84.40;;;;;;5072137;28;20065;-80
2022/03/08 10:21:51;;;;;;;8.40;4.45;;;8.70;82.40;;;;;;5088832;28;20044;-79
2022/03/08 10:24:20;;;;;;;7.88;4.68;;;8.70;77.90;;;;;;5089922;28;20155;-79
2022/03/08 10:26:58;;;;;;;5.47;3.90;;;8.80;78.20;;;;;;5072529;28;20055;-80
2022/03/08 10:29:41;;;;;;;10.07;4.55;;;9.10;73.50;;;;;;5071891;28;20449;-78
2022/03/08 10:32:10;;;;;;;6.82;4.07;;;9.60;70.40;;;;;;5107894;28;20043;-79
2022/03/08 10:34:38;;;;;;;5.97;3.67;;;8.90;74.20;;;;;;5088801;28;20047;-80
2022/03/08 10:37:14;;;;;;;5.35;3.97;;;8.90;72.70;;;;;;5089108;28;20044;-81
2022/03/08 10:39:53;;;;;;;6.40;3.88;;;9.10;71.20;;;;;;5089181;28;20043;-81
2022/03/08 10:42:30;;;;;;;9.60;4.05;;;9.20;68.20;;;;;;5072270;28;20036;-81
2022/03/08 10:45:16;;;;;;;5.45;3.88;;;9.30;71.70;;;;;;5108018;28;20068;-80
2022/03/08 10:47:43;;;;;;;6.80;3.58;;;9.30;68.10;;;;;;5106156;28;20128;-80
2022/03/08 10:50:14;;;;;;;7.97;4.05;;;9.40;68.60;;;;;;5106758;28;20039;-80
2022/03/08 10:52:42;;;;;;;6.28;4.00;;;9.40;66.00;;;;;;5088080;28;20048;-80
2022/03/08 10:55:20;;;;;;;5.28;3.47;;;10.60;67.90;;;;;;5088392;28;20091;-80
2022/03/08 10:57:50;;;;;;;7.25;3.83;;;9.40;67.70;;;;;;5088546;28;20157;-80
2022/03/08 11:00:20;;;;;;;5.88;3.58;;;9.50;66.20;;;;;;5087842;28;20046;-81
2022/03/08 11:02:56;;;;;;;7.20;3.42;;;9.60;65.30;;;;;;5087786;28;20040;-81
2022/03/08 11:05:25;;;;;;;8.73;3.30;;;9.60;63.50;;;;;;5071384;28;20414;-80
2022/03/08 11:07:51;;;;;;;5.57;3.38;;;9.70;63.90;;;;;;5088259;28;20134;-78
2022/03/08 11:10:18;;;;;;;4.70;2.60;;;9.70;64.00;;;;;;5088602;28;20469;-80
2022/03/08 11:12:45;;;;;;;4.68;2.95;;;9.70;61.80;;;;;;5071553;28;20391;-80
2022/03/08 11:15:14;;;;;;;5.55;2.92;;;9.80;61.70;;;;;;5088097;28;20391;-81
2022/03/08 11:17:43;;;;;;;5.63;3.17;;;11.10;62.70;;;;;;5070357;28;20102;-80
2022/03/08 11:20:10;;;;;;;3.15;2.47;;;9.80;62.30;;;;;;5070463;28;20048;-81
2022/03/08 11:22:37;;;;;;;5.38;2.10;;;9.90;60.70;;;;;;5071243;28;20039;-82
2022/03/08 11:25:09;;;;;;;5.53;3.00;;;10.10;61.10;;;;;;5070574;28;20046;-79
2022/03/08 11:27:38;;;;;;;4.82;2.47;;;10.00;59.90;;;;;;5087502;28;20079;-81
2022/03/08 11:30:04;;;;;;;3.05;2.28;;;10.00;59.10;;;;;;5087123;28;20123;-81
2022/03/08 11:32:54;;;;;;;7.82;3.03;;;10.10;60.40;;;;;;5087687;28;20035;-80
2022/03/08 11:35:36;;;;;;;6.68;2.45;;;10.20;59.10;;;;;;5059975;28;20052;-81
2022/03/08 11:38:04;;;;;;;2.90;2.28;;;10.30;57.90;;;;;;5070869;28;20047;-80
2022/03/08 11:40:33;;;;;;;7.53;2.38;;;10.40;59.00;;;;;;5087515;28;20419;-80
2022/03/08 11:43:04;;;;;;;5.38;2.90;;;10.40;58.50;;;;;;5087214;28;20050;-80
2022/03/08 11:45:31;;;;;;;4.40;2.80;;;10.50;59.20;;;;;;5087910;28;20538;-80
2022/03/08 11:47:59;;;;;;;6.35;2.55;;;10.50;58.70;;;;;;5070414;28;20447;-80
2022/03/08 11:50:31;;;;;;;5.53;2.80;;;11.40;58.80;;;;;;5070833;28;20097;-81
2022/03/08 11:53:12;;;;;;;7.40;2.30;;;10.60;58.10;;;;;;5070291;28;20044;-79
2022/03/08 11:55:44;;;;;;;5.10;3.03;;;10.50;55.90;;;;;;5086883;28;20048;-78
2022/03/08 11:58:43;;;;;;;5.35;2.75;;;10.40;55.90;;;;;;5086843;28;20048;-79
2022/03/08 12:01:24;;;;;;;5.25;2.78;;;10.50;54.00;;;;;;5058746;28;20070;-79
2022/03/08 12:03:55;;;;;;;3.83;2.72;;;10.50;56.80;;;;;;5086709;28;20093;-79
2022/03/08 12:06:33;;;;;;;4.57;2.83;;;10.60;55.90;;;;;;5087238;28;20040;-79
2022/03/08 12:09:07;;;;;;;4.88;2.70;;;10.60;55.90;;;;;;5086710;28;20047;-80
2022/03/08 12:12:00;;;;;;;3.60;2.58;;;10.70;57.60;;;;;;5070061;28;20051;-79
2022/03/08 12:14:37;;;;;;;3.58;2.30;;;10.90;54.50;;;;;;5082931;28;20052;-79
2022/03/08 12:17:10;;;;;;;5.38;2.78;;;11.00;54.80;;;;;;5069683;28;20475;-79
2022/03/08 12:19:40;;;;;;;5.50;2.72;;;11.00;57.20;;;;;;5086863;28;20047;-79
2022/03/08 12:22:12;;;;;;;5.38;2.53;;;11.00;55.20;;;;;;5086780;28;20048;-79
2022/03/08 12:24:41;;;;;;;4.05;2.30;;;11.10;55.90;;;;;;5087075;28;20089;-79
2022/03/08 12:27:09;;;;;;;4.03;2.47;;;11.10;55.10;;;;;;5086662;28;20047;-79
2022/03/08 12:29:50;;;;;;;7.10;2.38;;;11.10;55.60;;;;;;5086941;28;20483;-80
2022/03/08 12:32:32;;;;;;;4.22;2.10;;;11.30;55.60;;;;;;5069894;28;20083;-80
2022/03/08 12:35:14;;;;;;;3.33;2.10;;;11.30;54.20;;;;;;5105274;28;20039;-77
2022/03/08 12:37:40;;;;;;;7.00;1.98;;;11.40;55.10;;;;;;5104916;28;20095;-78
2022/03/08 12:40:17;;;;;;;7.70;2.33;;;11.50;54.70;;;;;;5105136;28;20076;-78
2022/03/08 12:42:48;;;;;;;5.00;2.42;;;11.40;53.80;;;;;;5086722;28;20047;-79
2022/03/08 12:45:21;;;;;;;4.82;1.80;;;11.50;54.90;;;;;;5105323;28;20047;-77
2022/03/08 12:47:48;;;;;;;3.20;1.98;;;11.60;54.20;;;;;;5104928;28;20502;-79
2022/03/08 12:50:16;;;;;;;7.47;2.15;;;11.60;53.80;;;;;;5086875;28;20044;-79
2022/03/08 12:53:15;;;;;;;6.45;2.10;;;11.50;53.50;;;;;;5086953;28;20040;-79
2022/03/08 12:55:51;;;;;;;2.80;2.15;;;11.60;52.50;;;;;;5071101;28;20052;-78
2022/03/08 12:58:19;;;;;;;5.00;2.47;;;11.60;52.50;;;;;;5090923;28;20485;-78
2022/03/08 13:00:56;;;;;;;2.75;2.00;;;12.10;53.10;;;;;;5073845;28;20043;-78
2022/03/08 13:03:28;;;;;;;3.50;1.67;;;11.70;53.50;;;;;;5090595;28;20050;-79
2022/03/08 13:05:56;;;;;;;4.18;2.08;;;11.70;52.50;;;;;;5089978;28;20548;-78
2022/03/08 13:08:26;;;;;;;3.33;2.05;;;11.80;53.30;;;;;;5089893;28;20117;-77
2022/03/08 13:10:58;;;;;;;3.90;1.80;;;11.90;52.90;;;;;;5090127;28;20040;-78
2022/03/08 13:13:24;;;;;;;4.65;1.83;;;11.90;52.40;;;;;;5108776;28;20047;-79
2022/03/08 13:15:51;;;;;;;4.13;2.55;;;11.90;52.80;;;;;;5089988;28;20047;-79
2022/03/08 13:18:29;;;;;;;5.18;2.40;;;11.90;52.80;;;;;;5090045;28;20047;-78
2022/03/08 13:21:02;;;;;;;6.50;2.60;;;12.00;52.50;;;;;;5108087;28;20413;-79
2022/03/08 13:23:34;;;;;;;4.32;2.33;;;12.00;52.80;;;;;;5108200;28;20054;-79
2022/03/08 13:26:01;;;;;;;4.90;2.25;;;12.10;53.00;;;;;;5089513;28;20043;-78
2022/03/08 13:28:28;;;;;;;3.30;2.08;;;12.10;52.80;;;;;;5107830;28;20471;-79
2022/03/08 13:31:01;;;;;;;5.10;2.58;;;12.20;53.30;;;;;;5108145;28;20447;-77
2022/03/08 13:33:28;;;;;;;;;;;12.20;53.30;;;;;;5108680;28;20035;-78
2022/03/08 13:36:01;;;;;;;4.40;2.60;;;12.20;49.80;;;;;;5108428;28;19942;-79
2022/03/08 13:38:34;;;;;;;2.90;2.17;;;12.30;53.50;;;;;;5088981;28;20051;-79
2022/03/08 13:41:13;;;;;;;4.25;2.83;;;12.30;53.50;;;;;;5089393;28;20384;-78
2022/03/08 13:43:41;;;;;;;10.77;2.50;;;12.30;52.90;;;;;;5089810;28;20071;-79
2022/03/08 13:46:29;;;;;;;5.15;2.45;;;12.40;53.80;;;;;;5089813;28;20301;-79
2022/03/08 13:49:03;;;;;;;5.10;2.38;;;12.50;53.20;;;;;;5088796;28;20055;-77
2022/03/08 13:51:30;;;;;;;3.80;2.38;;;12.60;52.20;;;;;;5089233;28;20035;-78
2022/03/08 13:53:57;;;;;;;7.78;2.67;;;12.50;52.90;;;;;;5107799;28;20114;-77
2022/03/08 13:56:24;;;;;;;3.35;2.25;;;12.50;52.60;;;;;;5088828;28;20083;-78
2022/03/08 13:58:54;;;;;;;3.53;2.30;;;12.50;52.40;;;;;;5107582;28;20048;-78
2022/03/08 14:01:25;;;;;;;9.48;2.40;;;12.50;51.80;;;;;;5089758;28;20530;-78
2022/03/08 14:03:53;;;;;;;3.95;2.25;;;12.50;51.90;;;;;;5106886;28;20039;-78
2022/03/08 14:06:24;;;;;;;6.40;2.28;;;12.50;52.00;;;;;;5107870;28;20522;-77
2022/03/08 14:08:51;;;;;;;3.78;1.80;;;12.50;51.80;;;;;;5107228;28;20135;-78
2022/03/08 14:11:22;;;;;;;4.50;2.33;;;12.50;52.10;;;;;;5072306;28;20044;-78
2022/03/08 14:13:51;;;;;;;6.70;2.28;;;12.40;51.20;;;;;;5089401;28;20054;-78
2022/03/08 14:16:18;;;;;;;3.40;1.90;;;12.40;51.70;;;;;;5107309;28;20044;-79
2022/03/08 14:18:55;;;;;;;5.80;1.90;;;12.40;51.70;;;;;;5107600;28;20146;-79
2022/03/08 14:21:36;;;;;;;6.00;2.45;;;12.40;51.10;;;;;;5088212;28;20043;-78
2022/03/08 14:24:10;;;;;;;2.92;1.60;;;12.60;50.90;;;;;;5107132;28;20054;-78
2022/03/08 14:26:36;;;;;;;1.90;1.42;;;12.50;50.10;;;;;;5107345;28;20051;-78
2022/03/08 14:29:10;;;;;;;3.20;1.80;;;12.40;50.10;;;;;;5088375;28;20066;-78
2022/03/08 14:31:37;;;;;;;5.32;2.65;;;12.40;49.70;;;;;;5089004;28;20451;-78
2022/03/08 14:34:12;;;;;;;5.32;2.33;;;12.30;49.40;;;;;;5070872;28;20050;-78
2022/03/08 14:36:40;;;;;;;5.68;1.83;;;12.30;48.60;;;;;;5088200;28;20499;-78
2022/03/08 14:39:17;;;;;;;4.43;1.63;;;12.40;50.30;;;;;;5071378;28;20050;-77
2022/03/08 14:42:07;;;;;;;3.13;1.73;;;12.50;49.20;;;;;;5088576;28;20132;-77
2022/03/08 14:44:36;;;;;;;3.60;1.88;;;12.50;49.70;;;;;;5088755;28;20040;-79
2022/03/08 14:47:03;;;;;;;2.53;1.50;;;12.60;49.10;;;;;;5087432;28;20043;-79
2022/03/08 14:49:29;;;;;;;5.47;1.77;;;12.60;49.60;;;;;;5088756;28;20537;-77
2022/03/08 14:51:55;;;;;;;3.78;1.67;;;12.60;50.00;;;;;;5087925;28;20043;-78
2022/03/08 14:54:22;;;;;;;5.32;1.70;;;12.60;49.80;;;;;;5071022;28;20089;-78
2022/03/08 14:56:48;;;;;;;2.72;1.48;;;12.60;49.30;;;;;;5054092;28;20051;-78
2022/03/08 14:59:14;;;;;;;5.55;2.13;;;12.40;48.90;;;;;;5071276;28;20057;-78